Accueil
METAR-TAF:

METAR-TAF

Aéroports :

Aéroport de Saint-Yan

Saint-Yan, France

latitude: 46-24-45N, longitude: 004-00-48E, altitude: 244 m

Observation

Le bulletin a été fait il y a 41 minutes, à 09:00 UTC
Vent 6 kt de est
Température 20°C
Humidité 49%
Pression 1011 hPa
Visibilité 10 km ou plus
pas de nuages en-dessous de 1500 mètres et pas de cumulonimbus.

METAR: LFLN 150900Z AUTO 08006KT CAVOK 20/09 Q1011 NOSIG

Heure: 11:41 (09:41 UTC)

Prévision

Le bulletin a été fait il y a 1 heure et 41 minutes, à 08:00 UTC
Prévision valable du 15 à 09 UTC au 15 à 18 UTC
Vent 7 kt de est
Visibilité 10 km ou plus
pas de nuages en-dessous de 1500 mètres et pas de cumulonimbus.
Probabilité 30% :
Temporairement
du 15 à 09 UTC au 15 à 15 UTC
Vent 12 kt de est/sud-est avec des rafales jusqu'à 22 kt

TAF: LFLN 150800Z 1509/1518 10007KT CAVOK PROB30 TEMPO 1509/1515 12012G22KT

Observations et prévisions météorologiques de plus de 4000 aéroports (messages METAR et TAF).

Les stations disponibles sont représentées par des disques jaunes et rouges sur la carte.

Passer la souris dessus pour voir le nom de la station.

Cliquer dessus pour voir les observations et prévisions météorologiques.

Pour changer de carte: cliquez sur les boutons verts avec une croix noire pour zoomer, sur le bouton vert avec un tiret pour effectuer un zoom arrière, ou sur les flèches vertes pour les cartes adjacentes.


METAR-TAF: